sensor_id;sensor_type;location;lat;lon;timestamp;pressure;altitude;pressure_sealevel;temperature;humidity
29569;BME280;16501;51.462;14.346;2023-05-12T00:01:25;100239.06;;;14.59;56.46
29569;BME280;16501;51.462;14.346;2023-05-12T00:03:51;100245.47;;;14.59;56.17
29569;BME280;16501;51.462;14.346;2023-05-12T00:06:17;100241.38;;;14.60;55.87
29569;BME280;16501;51.462;14.346;2023-05-12T00:08:42;100237.00;;;14.59;55.59
29569;BME280;16501;51.462;14.346;2023-05-12T00:11:08;100237.78;;;14.60;54.99
29569;BME280;16501;51.462;14.346;2023-05-12T00:13:33;100240.03;;;14.56;55.41
29569;BME280;16501;51.462;14.346;2023-05-12T00:15:58;100237.69;;;14.54;55.23
29569;BME280;16501;51.462;14.346;2023-05-12T00:18:24;100242.56;;;14.53;54.41
29569;BME280;16501;51.462;14.346;2023-05-12T00:20:50;100234.59;;;14.52;55.10
29569;BME280;16501;51.462;14.346;2023-05-12T00:23:15;100238.94;;;14.47;55.16
29569;BME280;16501;51.462;14.346;2023-05-12T00:25:40;100234.06;;;14.48;54.65
29569;BME280;16501;51.462;14.346;2023-05-12T00:28:05;100239.22;;;14.49;55.36
29569;BME280;16501;51.462;14.346;2023-05-12T00:30:30;100240.72;;;14.45;54.87
29569;BME280;16501;51.462;14.346;2023-05-12T00:32:56;100235.31;;;14.41;55.33
29569;BME280;16501;51.462;14.346;2023-05-12T00:35:21;100234.03;;;14.42;54.55
29569;BME280;16501;51.462;14.346;2023-05-12T00:37:46;100243.22;;;14.37;55.22
29569;BME280;16501;51.462;14.346;2023-05-12T00:40:11;100246.31;;;14.39;55.17
29569;BME280;16501;51.462;14.346;2023-05-12T00:42:37;100253.13;;;14.27;55.02
29569;BME280;16501;51.462;14.346;2023-05-12T00:45:02;100248.03;;;14.31;54.74
29569;BME280;16501;51.462;14.346;2023-05-12T00:47:28;100244.94;;;14.29;54.59
29569;BME280;16501;51.462;14.346;2023-05-12T00:49:54;100248.97;;;14.22;54.34
29569;BME280;16501;51.462;14.346;2023-05-12T00:52:19;100247.16;;;14.19;55.03
29569;BME280;16501;51.462;14.346;2023-05-12T00:54:44;100257.13;;;14.14;54.89
29569;BME280;16501;51.462;14.346;2023-05-12T00:57:10;100253.59;;;14.20;55.03
29569;BME280;16501;51.462;14.346;2023-05-12T00:59:36;100252.56;;;14.23;55.34
29569;BME280;16501;51.462;14.346;2023-05-12T01:02:01;100248.94;;;14.17;55.54
29569;BME280;16501;51.462;14.346;2023-05-12T01:04:26;100252.75;;;14.13;56.37
29569;BME280;16501;51.462;14.346;2023-05-12T01:07:03;100204.97;;;13.72;55.75
29569;BME280;16501;51.462;14.346;2023-05-12T01:09:29;100248.53;;;14.03;57.15
29569;BME280;16501;51.462;14.346;2023-05-12T01:11:54;100258.00;;;14.00;56.63
29569;BME280;16501;51.462;14.346;2023-05-12T01:14:19;100257.44;;;13.96;57.04
29569;BME280;16501;51.462;14.346;2023-05-12T01:16:47;100258.06;;;13.80;56.72
29569;BME280;16501;51.462;14.346;2023-05-12T01:19:23;100257.22;;;13.73;57.31
29569;BME280;16501;51.462;14.346;2023-05-12T01:21:53;100256.66;;;13.69;57.63
29569;BME280;16501;51.462;14.346;2023-05-12T01:24:18;100258.50;;;13.72;58.35
29569;BME280;16501;51.462;14.346;2023-05-12T01:26:45;100255.53;;;13.61;58.04
29569;BME280;16501;51.462;14.346;2023-05-12T01:29:10;100263.00;;;13.64;59.31
29569;BME280;16501;51.462;14.346;2023-05-12T01:31:36;100257.09;;;13.62;58.83
29569;BME280;16501;51.462;14.346;2023-05-12T01:34:01;100266.16;;;13.51;59.22
29569;BME280;16501;51.462;14.346;2023-05-12T01:36:26;100262.38;;;13.54;58.88
29569;BME280;16501;51.462;14.346;2023-05-12T01:38:52;100261.59;;;13.54;59.48
29569;BME280;16501;51.462;14.346;2023-05-12T01:41:17;100266.88;;;13.46;60.41
29569;BME280;16501;51.462;14.346;2023-05-12T01:43:42;100255.81;;;13.43;60.50
29569;BME280;16501;51.462;14.346;2023-05-12T01:46:07;100268.31;;;13.36;60.69
29569;BME280;16501;51.462;14.346;2023-05-12T01:48:34;100263.84;;;13.29;60.69
29569;BME280;16501;51.462;14.346;2023-05-12T01:50:59;100264.13;;;13.31;61.53
29569;BME280;16501;51.462;14.346;2023-05-12T01:53:25;100263.44;;;13.36;61.70
29569;BME280;16501;51.462;14.346;2023-05-12T01:55:50;100266.53;;;13.38;61.59
29569;BME280;16501;51.462;14.346;2023-05-12T01:58:15;100265.28;;;13.39;61.75
29569;BME280;16501;51.462;14.346;2023-05-12T02:00:41;100267.09;;;13.43;62.22
29569;BME280;16501;51.462;14.346;2023-05-12T02:03:06;100275.03;;;13.44;62.57
29569;BME280;16501;51.462;14.346;2023-05-12T02:05:31;100278.88;;;13.41;62.79
29569;BME280;16501;51.462;14.346;2023-05-12T02:07:56;100271.41;;;13.38;62.80
29569;BME280;16501;51.462;14.346;2023-05-12T02:10:21;100274.59;;;13.31;63.50
29569;BME280;16501;51.462;14.346;2023-05-12T02:12:47;100279.78;;;13.32;63.20
29569;BME280;16501;51.462;14.346;2023-05-12T02:15:12;100279.78;;;13.32;62.93
29569;BME280;16501;51.462;14.346;2023-05-12T02:17:37;100278.41;;;13.28;63.11
29569;BME280;16501;51.462;14.346;2023-05-12T02:20:02;100283.47;;;13.24;63.44
29569;BME280;16501;51.462;14.346;2023-05-12T02:22:29;100281.56;;;13.15;63.24
29569;BME280;16501;51.462;14.346;2023-05-12T02:24:54;100284.06;;;13.13;63.45
29569;BME280;16501;51.462;14.346;2023-05-12T02:27:19;100282.53;;;13.12;63.46
29569;BME280;16501;51.462;14.346;2023-05-12T02:29:44;100281.25;;;13.13;63.22
29569;BME280;16501;51.462;14.346;2023-05-12T02:32:10;100280.13;;;13.05;63.87
29569;BME280;16501;51.462;14.346;2023-05-12T02:34:35;100271.78;;;12.95;61.16
29569;BME280;16501;51.462;14.346;2023-05-12T02:37:00;100211.69;;;12.42;62.44
29569;BME280;16501;51.462;14.346;2023-05-12T02:39:28;100271.38;;;12.82;62.67
29569;BME280;16501;51.462;14.346;2023-05-12T02:41:53;100277.38;;;12.75;61.92
29569;BME280;16501;51.462;14.346;2023-05-12T02:44:18;100277.56;;;12.71;62.42
29569;BME280;16501;51.462;14.346;2023-05-12T02:46:46;100244.06;;;12.53;62.75
29569;BME280;16501;51.462;14.346;2023-05-12T02:49:11;100275.44;;;12.81;62.01
29569;BME280;16501;51.462;14.346;2023-05-12T02:51:36;100280.38;;;12.71;62.01
29569;BME280;16501;51.462;14.346;2023-05-12T02:54:01;100276.81;;;12.71;62.39
29569;BME280;16501;51.462;14.346;2023-05-12T02:56:27;100275.84;;;12.74;62.21
29569;BME280;16501;51.462;14.346;2023-05-12T02:58:52;100271.94;;;12.71;63.27
29569;BME280;16501;51.462;14.346;2023-05-12T03:01:18;100268.84;;;12.69;63.23
29569;BME280;16501;51.462;14.346;2023-05-12T03:03:43;100266.53;;;12.68;63.38
29569;BME280;16501;51.462;14.346;2023-05-12T03:06:08;100272.16;;;12.68;63.18
29569;BME280;16501;51.462;14.346;2023-05-12T03:08:33;100269.44;;;12.58;63.08
29569;BME280;16501;51.462;14.346;2023-05-12T03:10:58;100268.69;;;12.58;63.17
29569;BME280;16501;51.462;14.346;2023-05-12T03:13:24;100277.69;;;12.62;63.05
29569;BME280;16501;51.462;14.346;2023-05-12T03:15:49;100277.41;;;12.60;63.68
29569;BME280;16501;51.462;14.346;2023-05-12T03:18:14;100275.38;;;12.60;63.89
29569;BME280;16501;51.462;14.346;2023-05-12T03:20:39;100281.88;;;12.67;64.09
29569;BME280;16501;51.462;14.346;2023-05-12T03:23:04;100281.28;;;12.62;62.96
29569;BME280;16501;51.462;14.346;2023-05-12T03:25:30;100291.94;;;12.58;62.62
29569;BME280;16501;51.462;14.346;2023-05-12T03:27:55;100284.75;;;12.57;63.06
29569;BME280;16501;51.462;14.346;2023-05-12T03:30:20;100286.44;;;12.49;62.69
29569;BME280;16501;51.462;14.346;2023-05-12T03:32:45;100280.13;;;12.39;62.33
29569;BME280;16501;51.462;14.346;2023-05-12T03:35:11;100289.06;;;12.38;62.59
29569;BME280;16501;51.462;14.346;2023-05-12T03:37:36;100287.72;;;12.33;62.88
29569;BME280;16501;51.462;14.346;2023-05-12T03:40:02;100289.06;;;12.38;63.44
29569;BME280;16501;51.462;14.346;2023-05-12T03:42:28;100290.31;;;12.37;63.59
29569;BME280;16501;51.462;14.346;2023-05-12T03:44:54;100285.00;;;12.39;63.97
29569;BME280;16501;51.462;14.346;2023-05-12T03:47:19;100293.13;;;12.37;63.32
29569;BME280;16501;51.462;14.346;2023-05-12T03:49:44;100289.66;;;12.42;62.65
29569;BME280;16501;51.462;14.346;2023-05-12T03:52:09;100289.84;;;12.38;62.85
29569;BME280;16501;51.462;14.346;2023-05-12T03:54:34;100282.66;;;12.37;62.58
29569;BME280;16501;51.462;14.346;2023-05-12T03:57:00;100290.00;;;12.35;63.47
29569;BME280;16501;51.462;14.346;2023-05-12T04:01:28;100270.25;;;12.14;62.38
29569;BME280;16501;51.462;14.346;2023-05-12T04:03:53;100300.50;;;12.19;61.98
29569;BME280;16501;51.462;14.346;2023-05-12T04:06:19;100289.44;;;12.16;62.45
29569;BME280;16501;51.462;14.346;2023-05-12T04:08:44;100282.47;;;12.11;63.03
29569;BME280;16501;51.462;14.346;2023-05-12T04:11:09;100278.69;;;12.14;61.80
29569;BME280;16501;51.462;14.346;2023-05-12T04:13:35;100307.66;;;12.20;61.74
29569;BME280;16501;51.462;14.346;2023-05-12T04:16:00;100306.13;;;12.19;61.18
29569;BME280;16501;51.462;14.346;2023-05-12T04:18:26;100301.47;;;12.16;61.59
29569;BME280;16501;51.462;14.346;2023-05-12T04:20:53;100303.88;;;12.23;61.72
29569;BME280;16501;51.462;14.346;2023-05-12T04:23:18;100304.47;;;12.27;62.09
29569;BME280;16501;51.462;14.346;2023-05-12T04:25:44;100281.22;;;12.12;61.36
29569;BME280;16501;51.462;14.346;2023-05-12T04:28:10;100306.31;;;12.31;60.90
29569;BME280;16501;51.462;14.346;2023-05-12T04:30:38;100308.75;;;12.23;61.01
29569;BME280;16501;51.462;14.346;2023-05-12T04:33:03;100303.31;;;12.19;60.41
29569;BME280;16501;51.462;14.346;2023-05-12T04:35:28;100317.56;;;12.31;60.55
29569;BME280;16501;51.462;14.346;2023-05-12T04:37:54;100302.50;;;12.19;60.76
29569;BME280;16501;51.462;14.346;2023-05-12T04:40:19;100294.09;;;12.34;60.98
29569;BME280;16501;51.462;14.346;2023-05-12T04:42:44;100317.66;;;12.36;59.52
29569;BME280;16501;51.462;14.346;2023-05-12T04:45:10;100321.34;;;12.42;60.95
29569;BME280;16501;51.462;14.346;2023-05-12T04:47:35;100282.25;;;12.15;59.87
29569;BME280;16501;51.462;14.346;2023-05-12T04:50:00;100321.63;;;12.44;61.13
29569;BME280;16501;51.462;14.346;2023-05-12T04:52:26;100326.78;;;12.61;60.60
29569;BME280;16501;51.462;14.346;2023-05-12T04:54:51;100310.19;;;12.48;59.75
29569;BME280;16501;51.462;14.346;2023-05-12T04:57:17;100331.63;;;12.60;60.21
29569;BME280;16501;51.462;14.346;2023-05-12T04:59:42;100318.50;;;12.57;60.40
29569;BME280;16501;51.462;14.346;2023-05-12T05:02:08;100320.44;;;12.66;60.73
29569;BME280;16501;51.462;14.346;2023-05-12T05:04:33;100333.25;;;12.67;60.27
29569;BME280;16501;51.462;14.346;2023-05-12T05:06:59;100329.69;;;12.67;59.73
29569;BME280;16501;51.462;14.346;2023-05-12T05:09:24;100330.75;;;12.69;59.61
29569;BME280;16501;51.462;14.346;2023-05-12T05:11:49;100331.22;;;12.82;61.01
29569;BME280;16501;51.462;14.346;2023-05-12T05:14:15;100330.34;;;12.91;61.74
29569;BME280;16501;51.462;14.346;2023-05-12T05:16:40;100316.19;;;12.86;61.20
29569;BME280;16501;51.462;14.346;2023-05-12T05:19:05;100326.16;;;13.01;61.22
29569;BME280;16501;51.462;14.346;2023-05-12T05:21:30;100333.22;;;13.12;60.75
29569;BME280;16501;51.462;14.346;2023-05-12T05:23:56;100327.09;;;13.13;60.60
29569;BME280;16501;51.462;14.346;2023-05-12T05:26:21;100279.59;;;12.86;60.37
29569;BME280;16501;51.462;14.346;2023-05-12T05:28:47;100333.16;;;13.27;59.77
29569;BME280;16501;51.462;14.346;2023-05-12T05:31:15;100346.19;;;13.24;58.51
29569;BME280;16501;51.462;14.346;2023-05-12T05:33:41;100342.28;;;13.36;60.21
29569;BME280;16501;51.462;14.346;2023-05-12T05:36:06;100332.94;;;13.30;59.14
29569;BME280;16501;51.462;14.346;2023-05-12T05:38:32;100333.16;;;13.42;58.29
29569;BME280;16501;51.462;14.346;2023-05-12T05:40:57;100330.19;;;13.51;59.78
29569;BME280;16501;51.462;14.346;2023-05-12T05:43:22;100332.09;;;13.60;59.37
29569;BME280;16501;51.462;14.346;2023-05-12T05:45:48;100330.34;;;13.62;59.12
29569;BME280;16501;51.462;14.346;2023-05-12T05:48:13;100330.13;;;13.66;59.17
29569;BME280;16501;51.462;14.346;2023-05-12T05:50:39;100333.56;;;13.75;59.67
29569;BME280;16501;51.462;14.346;2023-05-12T05:53:04;100333.13;;;13.83;58.92
29569;BME280;16501;51.462;14.346;2023-05-12T05:55:30;100355.63;;;13.98;58.28
29569;BME280;16501;51.462;14.346;2023-05-12T05:57:56;100337.09;;;13.91;58.09
29569;BME280;16501;51.462;14.346;2023-05-12T06:00:21;100352.16;;;14.08;57.40
29569;BME280;16501;51.462;14.346;2023-05-12T06:02:46;100344.03;;;14.16;59.14
29569;BME280;16501;51.462;14.346;2023-05-12T06:05:11;100337.50;;;14.04;56.67
29569;BME280;16501;51.462;14.346;2023-05-12T06:07:37;100339.03;;;14.05;56.01
29569;BME280;16501;51.462;14.346;2023-05-12T06:10:02;100351.84;;;14.27;57.51
29569;BME280;16501;51.462;14.346;2023-05-12T06:12:29;100336.19;;;14.26;57.44
29569;BME280;16501;51.462;14.346;2023-05-12T06:14:54;100352.44;;;14.37;55.35
29569;BME280;16501;51.462;14.346;2023-05-12T06:17:19;100344.28;;;14.39;54.43
29569;BME280;16501;51.462;14.346;2023-05-12T06:19:44;100365.38;;;14.49;54.38
29569;BME280;16501;51.462;14.346;2023-05-12T06:22:12;100354.09;;;14.49;54.64
29569;BME280;16501;51.462;14.346;2023-05-12T06:24:38;100353.38;;;14.54;53.81
29569;BME280;16501;51.462;14.346;2023-05-12T06:27:03;100372.06;;;14.72;55.38
29569;BME280;16501;51.462;14.346;2023-05-12T06:29:29;100363.03;;;14.68;52.89
29569;BME280;16501;51.462;14.346;2023-05-12T06:31:54;100356.34;;;14.65;52.67
29569;BME280;16501;51.462;14.346;2023-05-12T06:34:19;100373.47;;;14.88;51.55
29569;BME280;16501;51.462;14.346;2023-05-12T06:36:45;100348.03;;;14.82;51.92
29569;BME280;16501;51.462;14.346;2023-05-12T06:39:10;100349.91;;;14.91;53.85
29569;BME280;16501;51.462;14.346;2023-05-12T06:41:35;100373.13;;;15.06;52.87
29569;BME280;16501;51.462;14.346;2023-05-12T06:44:01;100359.50;;;15.05;52.10
29569;BME280;16501;51.462;14.346;2023-05-12T06:46:27;100369.63;;;15.23;51.31
29569;BME280;16501;51.462;14.346;2023-05-12T06:48:52;100363.25;;;15.28;51.04
29569;BME280;16501;51.462;14.346;2023-05-12T06:51:19;100351.41;;;15.24;51.12
29569;BME280;16501;51.462;14.346;2023-05-12T06:53:45;100364.63;;;15.44;51.66
29569;BME280;16501;51.462;14.346;2023-05-12T06:56:10;100366.72;;;15.55;52.25
29569;BME280;16501;51.462;14.346;2023-05-12T06:58:35;100376.91;;;15.78;50.78
29569;BME280;16501;51.462;14.346;2023-05-12T07:01:01;100374.88;;;15.84;49.88
29569;BME280;16501;51.462;14.346;2023-05-12T07:03:29;100372.34;;;15.92;48.66
29569;BME280;16501;51.462;14.346;2023-05-12T07:05:54;100369.53;;;15.98;48.46
29569;BME280;16501;51.462;14.346;2023-05-12T07:08:20;100371.09;;;15.99;50.15
29569;BME280;16501;51.462;14.346;2023-05-12T07:10:45;100374.44;;;16.09;47.84
29569;BME280;16501;51.462;14.346;2023-05-12T07:13:11;100348.22;;;16.02;48.04
29569;BME280;16501;51.462;14.346;2023-05-12T07:15:36;100339.44;;;16.00;47.43
29569;BME280;16501;51.462;14.346;2023-05-12T07:18:02;100364.50;;;16.30;47.19
29569;BME280;16501;51.462;14.346;2023-05-12T07:20:27;100353.69;;;16.34;47.36
29569;BME280;16501;51.462;14.346;2023-05-12T07:22:53;100352.69;;;16.43;48.32
29569;BME280;16501;51.462;14.346;2023-05-12T07:25:18;100360.69;;;16.67;48.65
29569;BME280;16501;51.462;14.346;2023-05-12T07:27:44;100349.38;;;16.67;47.31
29569;BME280;16501;51.462;14.346;2023-05-12T07:30:10;100350.41;;;16.75;46.73
29569;BME280;16501;51.462;14.346;2023-05-12T07:32:35;100361.00;;;16.86;47.03
29569;BME280;16501;51.462;14.346;2023-05-12T07:35:01;100361.50;;;17.02;48.72
29569;BME280;16501;51.462;14.346;2023-05-12T07:37:28;100355.81;;;17.13;46.99
29569;BME280;16501;51.462;14.346;2023-05-12T07:39:53;100363.53;;;17.18;46.54
29569;BME280;16501;51.462;14.346;2023-05-12T07:42:18;100361.72;;;17.32;47.22
29569;BME280;16501;51.462;14.346;2023-05-12T07:44:44;100358.34;;;17.39;45.94
29569;BME280;16501;51.462;14.346;2023-05-12T07:47:09;100360.91;;;17.43;44.64
29569;BME280;16501;51.462;14.346;2023-05-12T07:49:34;100361.66;;;17.43;44.70
29569;BME280;16501;51.462;14.346;2023-05-12T07:52:00;100354.94;;;17.58;45.17
29569;BME280;16501;51.462;14.346;2023-05-12T07:54:25;100355.91;;;17.77;45.33
29569;BME280;16501;51.462;14.346;2023-05-12T07:56:52;100342.78;;;17.74;45.34
29569;BME280;16501;51.462;14.346;2023-05-12T07:59:18;100344.53;;;17.83;44.77
29569;BME280;16501;51.462;14.346;2023-05-12T08:01:43;100354.53;;;18.01;43.39
29569;BME280;16501;51.462;14.346;2023-05-12T08:04:08;100354.53;;;18.06;43.46
29569;BME280;16501;51.462;14.346;2023-05-12T08:06:34;100362.44;;;18.19;44.05
29569;BME280;16501;51.462;14.346;2023-05-12T08:08:59;100345.94;;;18.18;42.98
29569;BME280;16501;51.462;14.346;2023-05-12T08:11:25;100348.22;;;18.25;45.22
29569;BME280;16501;51.462;14.346;2023-05-12T08:13:51;100355.59;;;18.45;46.07
29569;BME280;16501;51.462;14.346;2023-05-12T08:16:16;100349.88;;;18.51;42.44
29569;BME280;16501;51.462;14.346;2023-05-12T08:18:42;100360.88;;;18.60;41.70
29569;BME280;16501;51.462;14.346;2023-05-12T08:21:07;100348.06;;;18.53;41.72
29569;BME280;16501;51.462;14.346;2023-05-12T08:23:33;100348.47;;;18.63;43.73
29569;BME280;16501;51.462;14.346;2023-05-12T08:25:58;100369.47;;;18.90;41.11
29569;BME280;16501;51.462;14.346;2023-05-12T08:28:23;100336.47;;;18.81;43.43
29569;BME280;16501;51.462;14.346;2023-05-12T08:30:49;100352.44;;;18.90;42.37
29569;BME280;16501;51.462;14.346;2023-05-12T08:33:14;100362.06;;;19.12;43.47
29569;BME280;16501;51.462;14.346;2023-05-12T08:35:39;100348.91;;;19.09;42.86
29569;BME280;16501;51.462;14.346;2023-05-12T08:38:05;100351.19;;;19.16;40.90
29569;BME280;16501;51.462;14.346;2023-05-12T08:40:33;100362.78;;;19.18;40.32
29569;BME280;16501;51.462;14.346;2023-05-12T08:43:22;100355.53;;;19.17;40.23
29569;BME280;16501;51.462;14.346;2023-05-12T08:45:48;100358.69;;;19.38;43.53
29569;BME280;16501;51.462;14.346;2023-05-12T08:48:14;100368.25;;;19.40;40.38
29569;BME280;16501;51.462;14.346;2023-05-12T08:50:41;100369.66;;;19.53;39.40
29569;BME280;16501;51.462;14.346;2023-05-12T08:53:10;100369.06;;;19.60;41.37
29569;BME280;16501;51.462;14.346;2023-05-12T08:55:37;100354.41;;;19.75;42.60
29569;BME280;16501;51.462;14.346;2023-05-12T08:58:03;100360.97;;;19.89;42.14
29569;BME280;16501;51.462;14.346;2023-05-12T09:00:30;100367.47;;;19.89;42.14
29569;BME280;16501;51.462;14.346;2023-05-12T09:02:58;100361.16;;;19.96;42.89
29569;BME280;16501;51.462;14.346;2023-05-12T09:05:27;100362.84;;;20.05;40.02
29569;BME280;16501;51.462;14.346;2023-05-12T09:07:53;100361.91;;;19.97;41.30
29569;BME280;16501;51.462;14.346;2023-05-12T09:10:20;100354.84;;;20.04;40.29
29569;BME280;16501;51.462;14.346;2023-05-12T09:12:46;100357.25;;;20.19;39.64
29569;BME280;16501;51.462;14.346;2023-05-12T09:15:19;100358.78;;;20.20;39.72
29569;BME280;16501;51.462;14.346;2023-05-12T09:17:47;100357.91;;;20.44;42.07
29569;BME280;16501;51.462;14.346;2023-05-12T09:20:12;100355.19;;;20.51;39.41
29569;BME280;16501;51.462;14.346;2023-05-12T09:22:37;100356.31;;;20.48;38.48
29569;BME280;16501;51.462;14.346;2023-05-12T09:25:23;100348.53;;;20.49;37.97
29569;BME280;16501;51.462;14.346;2023-05-12T09:27:54;100353.91;;;20.52;41.15
29569;BME280;16501;51.462;14.346;2023-05-12T09:30:30;100347.44;;;20.52;39.69
29569;BME280;16501;51.462;14.346;2023-05-12T09:33:10;100356.66;;;20.58;39.68
29569;BME280;16501;51.462;14.346;2023-05-12T09:35:40;100361.69;;;20.71;39.77
29569;BME280;16501;51.462;14.346;2023-05-12T09:38:07;100352.03;;;20.74;39.33
29569;BME280;16501;51.462;14.346;2023-05-12T09:40:32;100351.00;;;20.90;39.72
29569;BME280;16501;51.462;14.346;2023-05-12T09:42:57;100346.06;;;20.91;39.91
29569;BME280;16501;51.462;14.346;2023-05-12T09:45:23;100354.75;;;20.99;38.67
29569;BME280;16501;51.462;14.346;2023-05-12T09:47:48;100349.91;;;20.94;38.39
29569;BME280;16501;51.462;14.346;2023-05-12T09:50:13;100341.00;;;20.84;36.26
29569;BME280;16501;51.462;14.346;2023-05-12T09:52:39;100363.97;;;21.05;38.73
29569;BME280;16501;51.462;14.346;2023-05-12T09:55:08;100359.16;;;21.13;38.02
29569;BME280;16501;51.462;14.346;2023-05-12T09:57:42;100357.44;;;21.23;39.54
29569;BME280;16501;51.462;14.346;2023-05-12T10:00:12;100346.88;;;21.18;37.04
29569;BME280;16501;51.462;14.346;2023-05-12T10:02:42;100356.88;;;21.38;38.71
29569;BME280;16501;51.462;14.346;2023-05-12T10:05:13;100354.34;;;21.35;37.20
29569;BME280;16501;51.462;14.346;2023-05-12T10:07:41;100354.69;;;21.31;37.63
29569;BME280;16501;51.462;14.346;2023-05-12T10:10:10;100350.16;;;21.22;38.77
29569;BME280;16501;51.462;14.346;2023-05-12T10:12:38;100352.47;;;21.24;39.44
29569;BME280;16501;51.462;14.346;2023-05-12T10:15:05;100343.81;;;21.29;41.97
29569;BME280;16501;51.462;14.346;2023-05-12T10:17:33;100339.44;;;21.42;38.58
29569;BME280;16501;51.462;14.346;2023-05-12T10:20:00;100337.72;;;21.52;39.33
29569;BME280;16501;51.462;14.346;2023-05-12T10:22:27;100342.13;;;21.53;37.67
29569;BME280;16501;51.462;14.346;2023-05-12T10:24:53;100336.19;;;21.51;38.29
29569;BME280;16501;51.462;14.346;2023-05-12T10:27:20;100347.50;;;21.70;40.27
29569;BME280;16501;51.462;14.346;2023-05-12T10:29:46;100339.22;;;21.80;40.12
29569;BME280;16501;51.462;14.346;2023-05-12T10:32:12;100336.72;;;21.76;38.67
29569;BME280;16501;51.462;14.346;2023-05-12T10:34:39;100346.03;;;21.90;38.24
29569;BME280;16501;51.462;14.346;2023-05-12T10:37:08;100339.22;;;21.93;38.20
29569;BME280;16501;51.462;14.346;2023-05-12T10:39:35;100347.09;;;22.00;36.97
29569;BME280;16501;51.462;14.346;2023-05-12T10:42:08;100344.22;;;22.14;39.92
29569;BME280;16501;51.462;14.346;2023-05-12T10:44:35;100343.09;;;22.17;39.72
29569;BME280;16501;51.462;14.346;2023-05-12T10:47:01;100315.84;;;21.95;39.43
29569;BME280;16501;51.462;14.346;2023-05-12T10:49:39;100336.09;;;22.04;38.08
29569;BME280;16501;51.462;14.346;2023-05-12T10:52:04;100336.09;;;22.18;36.04
29569;BME280;16501;51.462;14.346;2023-05-12T10:54:38;100332.88;;;22.21;36.41
29569;BME280;16501;51.462;14.346;2023-05-12T10:57:14;100329.03;;;22.32;37.05
29569;BME280;16501;51.462;14.346;2023-05-12T10:59:50;100316.84;;;22.32;36.44
29569;BME280;16501;51.462;14.346;2023-05-12T11:02:21;100330.94;;;22.51;34.53
29569;BME280;16501;51.462;14.346;2023-05-12T11:04:52;100333.25;;;22.73;38.06
29569;BME280;16501;51.462;14.346;2023-05-12T11:07:21;100316.09;;;22.94;37.94
29569;BME280;16501;51.462;14.346;2023-05-12T11:09:47;100312.13;;;22.97;35.98
29569;BME280;16501;51.462;14.346;2023-05-12T11:12:12;100319.97;;;23.05;36.33
29569;BME280;16501;51.462;14.346;2023-05-12T11:14:40;100316.59;;;23.06;36.05
29569;BME280;16501;51.462;14.346;2023-05-12T11:17:06;100330.09;;;23.06;37.70
29569;BME280;16501;51.462;14.346;2023-05-12T11:19:32;100318.75;;;22.92;37.78
29569;BME280;16501;51.462;14.346;2023-05-12T11:22:06;100320.06;;;22.91;37.45
29569;BME280;16501;51.462;14.346;2023-05-12T11:24:34;100328.78;;;23.07;35.44
29569;BME280;16501;51.462;14.346;2023-05-12T11:27:00;100316.09;;;22.94;36.99
29569;BME280;16501;51.462;14.346;2023-05-12T11:29:25;100305.78;;;22.70;36.19
29569;BME280;16501;51.462;14.346;2023-05-12T11:31:51;100323.28;;;22.88;35.77
29569;BME280;16501;51.462;14.346;2023-05-12T11:34:21;100326.75;;;22.94;34.48
29569;BME280;16501;51.462;14.346;2023-05-12T11:36:47;100325.03;;;23.12;36.51
29569;BME280;16501;51.462;14.346;2023-05-12T11:39:16;100321.44;;;23.19;34.87
29569;BME280;16501;51.462;14.346;2023-05-12T11:41:42;100304.91;;;23.25;34.56
29569;BME280;16501;51.462;14.346;2023-05-12T11:44:15;100316.22;;;23.39;32.46
29569;BME280;16501;51.462;14.346;2023-05-12T11:46:41;100324.06;;;23.38;32.24
29569;BME280;16501;51.462;14.346;2023-05-12T11:49:10;100288.44;;;23.18;34.70
29569;BME280;16501;51.462;14.346;2023-05-12T11:51:42;100332.28;;;23.42;33.81
29569;BME280;16501;51.462;14.346;2023-05-12T11:54:07;100323.94;;;23.23;33.21
29569;BME280;16501;51.462;14.346;2023-05-12T11:56:33;100319.78;;;23.24;33.76
29569;BME280;16501;51.462;14.346;2023-05-12T11:58:58;100320.00;;;23.33;33.57
29569;BME280;16501;51.462;14.346;2023-05-12T12:01:24;100313.63;;;23.48;33.88
29569;BME280;16501;51.462;14.346;2023-05-12T12:03:51;100318.50;;;23.69;33.33
29569;BME280;16501;51.462;14.346;2023-05-12T12:06:18;100306.16;;;23.45;31.96
29569;BME280;16501;51.462;14.346;2023-05-12T12:08:56;100330.69;;;23.62;32.19
29569;BME280;16501;51.462;14.346;2023-05-12T12:11:24;100317.88;;;23.63;31.88
29569;BME280;16501;51.462;14.346;2023-05-12T12:13:55;100307.66;;;23.39;32.90
29569;BME280;16501;51.462;14.346;2023-05-12T12:16:24;100316.88;;;23.52;32.61
29569;BME280;16501;51.462;14.346;2023-05-12T12:18:50;100328.72;;;23.85;32.81
29569;BME280;16501;51.462;14.346;2023-05-12T12:21:15;100322.63;;;23.89;32.30
29569;BME280;16501;51.462;14.346;2023-05-12T12:23:40;100314.09;;;24.04;31.70
29569;BME280;16501;51.462;14.346;2023-05-12T12:26:06;100332.06;;;24.13;31.20
29569;BME280;16501;51.462;14.346;2023-05-12T12:28:31;100314.84;;;24.05;30.18
29569;BME280;16501;51.462;14.346;2023-05-12T12:30:57;100318.53;;;23.77;31.89
29569;BME280;16501;51.462;14.346;2023-05-12T12:33:22;100313.22;;;23.15;30.61
29569;BME280;16501;51.462;14.346;2023-05-12T12:35:48;100323.69;;;22.92;31.62
29569;BME280;16501;51.462;14.346;2023-05-12T12:38:13;100325.09;;;22.77;32.53